createdAt,value
2022-10-10T00:01:32.457Z,1.94
2022-10-10T00:04:01.996Z,1.96
2022-10-10T00:06:33.238Z,1.94
2022-10-10T00:09:04.149Z,1.95
2022-10-10T00:11:32.593Z,1.87
2022-10-10T00:14:01.308Z,1.95
2022-10-10T00:16:29.285Z,1.95
2022-10-10T00:18:57.646Z,1.88
2022-10-10T00:21:25.642Z,1.93
2022-10-10T00:23:53.610Z,1.97
2022-10-10T00:26:21.716Z,1.96
2022-10-10T00:28:49.886Z,1.96
2022-10-10T00:31:18.031Z,1.93
2022-10-10T00:33:46.594Z,1.93
2022-10-10T00:36:14.720Z,1.92
2022-10-10T00:38:43.311Z,1.91
2022-10-10T00:41:11.152Z,1.87
2022-10-10T00:43:39.387Z,1.88
2022-10-10T00:46:07.060Z,1.85
2022-10-10T00:48:37.871Z,1.79
2022-10-10T00:51:17.398Z,1.77
2022-10-10T00:53:49.065Z,1.65
2022-10-10T00:56:20.879Z,1.65
2022-10-10T00:58:51.663Z,1.62
2022-10-10T01:01:20.227Z,1.57
2022-10-10T01:03:48.709Z,1.50
2022-10-10T01:06:16.569Z,1.49
2022-10-10T01:08:45.124Z,1.47
2022-10-10T01:11:38.403Z,1.41
2022-10-10T01:14:37.659Z,1.39
2022-10-10T01:17:11.488Z,1.28
2022-10-10T01:20:01.618Z,1.22
2022-10-10T01:22:41.383Z,1.26
2022-10-10T01:25:37.433Z,1.28
2022-10-10T01:28:31.020Z,1.25
2022-10-10T01:30:58.911Z,1.26
2022-10-10T01:33:39.011Z,1.25
2022-10-10T01:36:16.877Z,1.21
2022-10-10T01:39:08.864Z,1.20
2022-10-10T01:41:56.973Z,1.17
2022-10-10T01:44:24.923Z,1.13
2022-10-10T01:46:52.826Z,1.12
2022-10-10T01:49:24.368Z,1.08
2022-10-10T01:52:16.467Z,1.09
2022-10-10T01:55:02.828Z,1.10
2022-10-10T01:57:53.309Z,1.03
2022-10-10T02:00:21.237Z,1.00
2022-10-10T02:03:08.559Z,0.96
2022-10-10T02:05:41.653Z,0.91
2022-10-10T02:08:27.094Z,0.92
2022-10-10T02:11:06.782Z,0.93
2022-10-10T02:14:00.805Z,0.92
2022-10-10T02:16:32.598Z,0.90
2022-10-10T02:19:01.570Z,0.89
2022-10-10T02:21:30.068Z,0.86
2022-10-10T02:24:01.950Z,0.82
2022-10-10T02:26:32.025Z,0.78
2022-10-10T02:29:01.802Z,0.77
2022-10-10T02:31:38.409Z,0.76
2022-10-10T02:34:11.261Z,0.78
2022-10-10T02:36:40.681Z,0.80
2022-10-10T02:39:10.522Z,0.76
2022-10-10T02:41:38.651Z,0.75
2022-10-10T02:44:07.583Z,0.72
2022-10-10T02:46:35.335Z,0.72
2022-10-10T02:49:03.373Z,0.77
2022-10-10T02:51:31.590Z,0.68
2022-10-10T02:54:00.155Z,0.66
2022-10-10T02:56:28.083Z,0.62
2022-10-10T02:58:56.390Z,0.62
2022-10-10T03:01:24.426Z,0.63
2022-10-10T03:03:52.934Z,0.62
2022-10-10T03:06:20.819Z,0.65
2022-10-10T03:08:48.855Z,0.70
2022-10-10T03:11:16.589Z,0.77
2022-10-10T03:13:44.890Z,0.78
2022-10-10T03:16:13.424Z,0.77
2022-10-10T03:18:41.770Z,0.69
2022-10-10T03:21:09.903Z,0.68
2022-10-10T03:23:37.834Z,0.67
2022-10-10T03:26:06.294Z,0.66
2022-10-10T03:28:34.237Z,0.67
2022-10-10T03:31:02.674Z,0.66
2022-10-10T03:33:30.615Z,0.77
2022-10-10T03:35:59.149Z,1.01
2022-10-10T03:38:27.064Z,1.00
2022-10-10T03:40:55.612Z,0.96
2022-10-10T03:43:23.709Z,0.97
2022-10-10T03:45:51.795Z,1.07
2022-10-10T03:48:23.066Z,1.07
2022-10-10T03:50:51.325Z,1.09
2022-10-10T03:53:19.401Z,1.06
2022-10-10T03:55:47.655Z,1.09
2022-10-10T03:58:18.005Z,1.08
2022-10-10T04:00:59.413Z,1.15
2022-10-10T04:03:27.316Z,1.11
2022-10-10T04:05:56.018Z,1.01
2022-10-10T04:08:25.108Z,0.98
2022-10-10T04:10:55.061Z,1.06
2022-10-10T04:13:23.794Z,1.07
2022-10-10T04:15:53.507Z,1.08
2022-10-10T04:18:22.029Z,1.05
2022-10-10T04:20:50.707Z,0.92
2022-10-10T04:23:18.368Z,0.85
2022-10-10T04:25:48.243Z,0.81
2022-10-10T04:28:16.987Z,0.74
2022-10-10T04:30:45.241Z,0.74
2022-10-10T04:33:12.969Z,0.70
2022-10-10T04:35:41.534Z,0.67
2022-10-10T04:38:09.655Z,0.62
2022-10-10T04:40:38.359Z,0.62
2022-10-10T04:43:06.051Z,0.59
2022-10-10T04:45:37.410Z,0.56
2022-10-10T04:48:05.715Z,0.54
2022-10-10T04:50:33.774Z,0.51
2022-10-10T04:53:01.661Z,0.52
2022-10-10T04:55:30.012Z,0.56
2022-10-10T04:57:58.664Z,0.59
2022-10-10T05:00:27.311Z,0.61
2022-10-10T05:02:55.422Z,0.59
2022-10-10T05:05:24.164Z,0.63
2022-10-10T05:07:55.533Z,0.67
2022-10-10T05:10:25.743Z,0.70
2022-10-10T05:12:53.947Z,0.75
2022-10-10T05:15:23.213Z,0.83
2022-10-10T05:17:51.198Z,0.94
2022-10-10T05:20:20.266Z,1.02
2022-10-10T05:22:48.099Z,1.07
2022-10-10T05:25:16.661Z,1.09
2022-10-10T05:27:44.680Z,1.31
2022-10-10T05:30:13.343Z,1.49
2022-10-10T05:32:41.423Z,1.56
2022-10-10T05:35:10.011Z,1.77
2022-10-10T05:37:38.311Z,1.86
2022-10-10T05:40:07.086Z,2.02
2022-10-10T05:42:35.387Z,2.26
2022-10-10T05:45:04.585Z,2.56
2022-10-10T05:47:32.445Z,2.90
2022-10-10T05:50:00.833Z,3.24
2022-10-10T05:52:29.390Z,3.67
2022-10-10T05:54:58.135Z,4.06
2022-10-10T05:57:26.089Z,4.35
2022-10-10T05:59:54.460Z,4.66
2022-10-10T06:02:22.129Z,4.84
2022-10-10T06:04:50.858Z,4.85
2022-10-10T06:07:18.835Z,4.90
2022-10-10T06:09:47.364Z,4.99
2022-10-10T06:12:15.315Z,5.23
2022-10-10T06:14:43.449Z,5.38
2022-10-10T06:17:13.714Z,5.58
2022-10-10T06:19:43.868Z,5.77
2022-10-10T06:22:12.244Z,6.02
2022-10-10T06:24:40.155Z,6.15
2022-10-10T06:27:07.889Z,6.31
2022-10-10T06:29:36.070Z,6.58
2022-10-10T06:32:03.791Z,6.90
2022-10-10T06:34:32.082Z,7.09
2022-10-10T06:36:59.944Z,7.23
2022-10-10T06:39:28.356Z,7.57
2022-10-10T06:41:57.011Z,7.79
2022-10-10T06:44:27.926Z,8.00
2022-10-10T06:46:55.785Z,8.21
2022-10-10T06:49:24.994Z,8.32
2022-10-10T06:51:52.915Z,8.50
2022-10-10T06:54:21.290Z,8.61
2022-10-10T06:56:49.109Z,8.62
2022-10-10T06:59:17.078Z,8.53
2022-10-10T07:01:45.536Z,8.57
2022-10-10T07:04:13.818Z,8.69
2022-10-10T07:06:41.584Z,8.84
2022-10-10T07:09:10.080Z,8.79
2022-10-10T07:11:37.811Z,8.83
2022-10-10T07:14:05.851Z,8.94
2022-10-10T07:16:34.315Z,9.12
2022-10-10T07:19:02.806Z,9.35
2022-10-10T07:21:30.661Z,9.56
2022-10-10T07:23:58.627Z,9.82
2022-10-10T07:26:28.542Z,10.10
2022-10-10T07:28:56.711Z,10.27
2022-10-10T07:31:24.571Z,10.05
2022-10-10T07:33:53.076Z,10.15
2022-10-10T07:36:21.307Z,10.33
2022-10-10T07:38:53.362Z,10.38
2022-10-10T07:41:21.972Z,10.44
2022-10-10T07:43:55.564Z,10.59
2022-10-10T07:46:24.329Z,10.79
2022-10-10T07:48:52.379Z,10.81
2022-10-10T07:51:20.781Z,10.85
2022-10-10T07:53:48.745Z,10.91
2022-10-10T07:56:17.071Z,10.89
2022-10-10T07:58:45.161Z,10.92
2022-10-10T08:01:13.887Z,10.67
2022-10-10T08:03:42.319Z,10.87
2022-10-10T08:06:13.960Z,10.98
2022-10-10T08:08:50.806Z,11.15
2022-10-10T08:11:21.848Z,11.03
2022-10-10T08:13:50.991Z,10.90
2022-10-10T08:16:20.633Z,11.04
2022-10-10T08:18:48.984Z,11.24
2022-10-10T08:21:17.570Z,11.44
2022-10-10T08:23:45.632Z,11.56
2022-10-10T08:26:15.344Z,11.63
2022-10-10T08:28:44.735Z,11.64
2022-10-10T08:31:14.913Z,11.72
2022-10-10T08:33:45.984Z,11.82
2022-10-10T08:36:22.667Z,11.84
2022-10-10T08:38:53.552Z,11.93
2022-10-10T08:41:45.905Z,12.42
2022-10-10T08:44:40.259Z,12.38
2022-10-10T08:47:15.048Z,12.69
2022-10-10T08:49:50.448Z,12.92
2022-10-10T08:52:38.695Z,13.00
2022-10-10T08:55:14.411Z,12.74
2022-10-10T08:57:59.038Z,12.77
2022-10-10T09:00:33.433Z,12.60
2022-10-10T09:03:02.018Z,12.38
2022-10-10T09:05:49.991Z,12.22
2022-10-10T09:08:54.292Z,12.10
2022-10-10T09:11:50.684Z,12.18
2022-10-10T09:14:24.047Z,12.36
2022-10-10T09:17:35.021Z,12.43
2022-10-10T09:20:24.994Z,12.48
2022-10-10T09:23:11.697Z,12.58
2022-10-10T09:25:48.138Z,12.73
2022-10-10T09:28:39.270Z,12.75
2022-10-10T09:31:15.153Z,12.66
2022-10-10T09:33:52.005Z,12.32
2022-10-10T09:36:24.620Z,12.53
2022-10-10T09:39:02.440Z,12.67
2022-10-10T09:41:39.920Z,12.87
2022-10-10T09:44:11.655Z,12.95
2022-10-10T09:46:40.054Z,12.92
2022-10-10T09:49:08.271Z,12.95
2022-10-10T09:51:36.077Z,13.03
2022-10-10T09:54:05.513Z,13.19
2022-10-10T09:56:49.503Z,13.13
2022-10-10T09:59:39.840Z,13.18
2022-10-10T10:02:19.831Z,13.19
2022-10-10T10:04:49.433Z,12.99
2022-10-10T10:07:34.610Z,12.69
2022-10-10T10:10:12.245Z,12.73
2022-10-10T10:12:42.337Z,12.60
2022-10-10T10:15:24.775Z,12.70
2022-10-10T10:18:17.885Z,12.98
2022-10-10T10:20:48.427Z,13.18
2022-10-10T10:23:36.433Z,13.30
2022-10-10T10:26:09.862Z,13.21
2022-10-10T10:28:41.228Z,13.26
2022-10-10T10:31:19.487Z,13.27
2022-10-10T10:34:08.760Z,13.34
2022-10-10T10:37:02.725Z,13.51
2022-10-10T10:39:52.067Z,13.54
2022-10-10T10:42:35.810Z,13.60
2022-10-10T10:45:19.110Z,13.69
2022-10-10T10:47:50.000Z,13.90
2022-10-10T10:50:42.337Z,13.70
2022-10-10T10:53:32.719Z,13.46
2022-10-10T10:56:19.327Z,13.51
2022-10-10T11:02:09.425Z,13.58
2022-10-10T11:05:23.626Z,13.72
2022-10-10T11:08:20.234Z,13.70
2022-10-10T11:11:07.550Z,13.82
2022-10-10T11:13:52.873Z,13.83
2022-10-10T11:16:49.118Z,13.80
2022-10-10T11:19:38.264Z,13.72
2022-10-10T11:22:13.989Z,13.58
2022-10-10T11:24:54.471Z,13.69
2022-10-10T11:27:29.239Z,13.88
2022-10-10T11:29:59.969Z,14.02
2022-10-10T11:32:33.594Z,13.96
2022-10-10T11:35:14.109Z,13.89
2022-10-10T11:37:47.570Z,13.88
2022-10-10T11:40:41.463Z,13.90
2022-10-10T11:43:16.111Z,13.91
2022-10-10T11:45:53.612Z,13.94
2022-10-10T11:48:45.964Z,14.19
2022-10-10T11:51:46.089Z,14.25
2022-10-10T11:54:28.726Z,14.20
2022-10-10T11:57:01.033Z,14.15
2022-10-10T11:59:54.738Z,14.04
2022-10-10T12:02:37.215Z,14.10
2022-10-10T12:05:06.659Z,14.20
2022-10-10T12:07:44.006Z,14.22
2022-10-10T12:10:50.562Z,14.36
2022-10-10T12:13:30.272Z,14.41
2022-10-10T12:16:02.990Z,14.48
2022-10-10T12:19:16.775Z,14.30
2022-10-10T12:22:03.831Z,14.43
2022-10-10T12:25:10.057Z,14.56
2022-10-10T12:28:05.983Z,14.68
2022-10-10T12:30:34.256Z,14.77
2022-10-10T12:33:02.555Z,14.86
2022-10-10T12:35:39.835Z,14.79
2022-10-10T12:38:15.332Z,14.80
2022-10-10T12:41:13.950Z,14.87
2022-10-10T12:43:50.198Z,14.93
2022-10-10T12:46:29.649Z,14.91
2022-10-10T12:49:01.520Z,14.94
2022-10-10T12:51:30.464Z,14.94
2022-10-10T12:54:00.167Z,14.83
2022-10-10T12:56:46.554Z,14.91
2022-10-10T12:59:21.144Z,14.93
2022-10-10T13:02:02.422Z,14.77
2022-10-10T13:04:31.251Z,14.80
2022-10-10T13:07:00.945Z,14.82
2022-10-10T13:09:35.462Z,14.84
2022-10-10T13:12:06.019Z,14.86
2022-10-10T13:14:45.165Z,14.97
2022-10-10T13:17:32.570Z,15.03
2022-10-10T13:20:01.350Z,15.10
2022-10-10T13:22:30.977Z,15.11
2022-10-10T13:25:00.610Z,15.12
2022-10-10T13:27:32.733Z,15.10
2022-10-10T13:30:01.497Z,15.06
2022-10-10T13:32:33.463Z,15.01
2022-10-10T13:35:04.820Z,14.98
2022-10-10T13:37:33.173Z,14.98
2022-10-10T13:40:01.415Z,15.03
2022-10-10T13:42:38.733Z,15.07
2022-10-10T13:45:30.096Z,15.02
2022-10-10T13:48:02.143Z,15.01
2022-10-10T13:50:53.498Z,14.95
2022-10-10T13:53:27.783Z,14.97
2022-10-10T13:56:26.249Z,14.90
2022-10-10T13:58:58.381Z,14.89
2022-10-10T14:01:33.340Z,14.90
2022-10-10T14:04:26.311Z,14.98
2022-10-10T14:07:05.748Z,14.90
2022-10-10T14:09:40.341Z,14.91
2022-10-10T14:12:33.910Z,14.94
2022-10-10T14:15:03.193Z,15.00
2022-10-10T14:17:31.977Z,14.98
2022-10-10T14:20:00.053Z,14.95
2022-10-10T14:22:28.181Z,14.91
2022-10-10T14:24:56.023Z,14.92
2022-10-10T14:27:26.515Z,14.92
2022-10-10T14:29:57.888Z,14.87
2022-10-10T14:32:27.939Z,14.80
2022-10-10T14:34:55.669Z,14.74
2022-10-10T14:37:27.462Z,14.73
2022-10-10T14:39:56.235Z,14.74
2022-10-10T14:42:26.670Z,14.75
2022-10-10T14:44:55.146Z,14.70
2022-10-10T14:47:24.875Z,14.67
2022-10-10T14:49:53.719Z,14.60
2022-10-10T14:52:22.349Z,14.60
2022-10-10T14:54:50.133Z,14.61
2022-10-10T14:57:19.621Z,14.59
2022-10-10T14:59:50.062Z,14.52
2022-10-10T15:02:20.986Z,14.47
2022-10-10T15:04:49.719Z,14.37
2022-10-10T15:07:18.270Z,14.32
2022-10-10T15:10:11.211Z,14.30
2022-10-10T15:12:38.600Z,14.24
2022-10-10T15:15:08.705Z,14.06
2022-10-10T15:17:36.952Z,14.01
2022-10-10T15:20:07.415Z,13.94
2022-10-10T15:22:42.962Z,13.83
2022-10-10T15:25:11.380Z,13.84
2022-10-10T15:27:39.563Z,13.76
2022-10-10T15:30:08.231Z,13.69
2022-10-10T15:32:39.597Z,13.64
2022-10-10T15:35:08.550Z,13.58
2022-10-10T15:37:36.968Z,13.47
2022-10-10T15:40:05.893Z,13.41
2022-10-10T15:42:34.332Z,13.28
2022-10-10T15:45:02.742Z,13.19
2022-10-10T15:47:31.562Z,13.12
2022-10-10T15:49:59.455Z,13.02
2022-10-10T15:52:27.793Z,12.96
2022-10-10T15:54:55.915Z,12.91
2022-10-10T15:57:24.553Z,12.88
2022-10-10T15:59:52.385Z,12.79
2022-10-10T16:02:20.946Z,12.74
2022-10-10T16:04:48.885Z,12.65
2022-10-10T16:07:38.455Z,12.62
2022-10-10T16:10:05.682Z,12.55
2022-10-10T16:12:33.491Z,12.47
2022-10-10T16:15:06.049Z,12.39
2022-10-10T16:17:35.520Z,12.38
2022-10-10T16:20:04.210Z,12.33
2022-10-10T16:22:31.979Z,12.29
2022-10-10T16:27:48.872Z,12.16
2022-10-10T16:30:17.173Z,12.06
2022-10-10T16:32:44.952Z,12.00
2022-10-10T16:35:13.231Z,11.99
2022-10-10T16:37:41.715Z,11.98
2022-10-10T16:40:10.799Z,11.95
2022-10-10T16:42:39.223Z,11.94
2022-10-10T16:45:08.179Z,11.87
2022-10-10T16:47:36.684Z,11.92
2022-10-10T16:50:06.150Z,11.91
2022-10-10T16:52:38.351Z,11.83
2022-10-10T16:55:08.427Z,11.77
2022-10-10T16:57:36.700Z,11.72
2022-10-10T17:00:07.307Z,11.65
2022-10-10T17:02:36.076Z,11.61
2022-10-10T17:05:04.918Z,11.62
2022-10-10T17:07:32.762Z,11.58
2022-10-10T17:10:00.777Z,11.52
2022-10-10T17:12:28.903Z,11.50
2022-10-10T17:14:56.872Z,11.50
2022-10-10T17:17:25.231Z,11.42
2022-10-10T17:19:54.180Z,11.38
2022-10-10T17:22:22.107Z,11.34
2022-10-10T17:24:50.547Z,11.32
2022-10-10T17:27:19.144Z,11.25
2022-10-10T17:29:46.978Z,11.29
2022-10-10T17:32:14.791Z,11.23
2022-10-10T17:34:43.073Z,11.03
2022-10-10T17:37:10.897Z,11.10
2022-10-10T17:39:38.879Z,11.08
2022-10-10T17:42:07.063Z,11.00
2022-10-10T17:44:41.128Z,10.98
2022-10-10T17:47:11.764Z,10.99
2022-10-10T17:49:41.407Z,10.95
2022-10-10T17:52:09.519Z,10.84
2022-10-10T17:54:38.102Z,10.89
2022-10-10T17:57:06.430Z,10.89
2022-10-10T17:59:34.386Z,10.78
2022-10-10T18:02:02.988Z,10.83
2022-10-10T18:04:31.198Z,10.82
2022-10-10T18:06:59.161Z,10.76
2022-10-10T18:09:32.117Z,10.77
2022-10-10T18:12:01.071Z,10.71
2022-10-10T18:14:29.625Z,10.64
2022-10-10T18:16:58.199Z,10.63
2022-10-10T18:19:26.162Z,10.63
2022-10-10T18:21:54.159Z,10.49
2022-10-10T18:24:21.833Z,10.56
2022-10-10T18:26:50.348Z,10.47
2022-10-10T18:29:18.310Z,10.42
2022-10-10T18:31:45.752Z,10.35
2022-10-10T18:34:13.691Z,10.34
2022-10-10T18:36:42.613Z,10.18
2022-10-10T18:39:14.091Z,10.32
2022-10-10T18:41:41.918Z,10.27
2022-10-10T18:44:13.391Z,10.23
2022-10-10T18:46:41.052Z,10.26
2022-10-10T18:49:09.643Z,10.26
2022-10-10T18:51:37.620Z,10.20
2022-10-10T18:54:08.666Z,10.18
2022-10-10T18:56:38.267Z,10.14
2022-10-10T18:59:07.663Z,10.15
2022-10-10T19:01:36.881Z,10.14
2022-10-10T19:04:05.898Z,10.12
2022-10-10T19:06:34.081Z,10.15
2022-10-10T19:09:02.610Z,10.15
2022-10-10T19:11:33.462Z,10.12
2022-10-10T19:14:03.338Z,10.15
2022-10-10T19:16:31.426Z,10.12
2022-10-10T19:19:03.324Z,10.13
2022-10-10T19:21:33.818Z,10.12
2022-10-10T19:24:03.094Z,9.96
2022-10-10T19:26:34.312Z,10.02
2022-10-10T19:29:07.020Z,10.06
2022-10-10T19:31:36.409Z,10.05
2022-10-10T19:34:05.191Z,10.02
2022-10-10T19:36:36.152Z,10.03
2022-10-10T19:39:06.774Z,10.01
2022-10-10T19:41:35.086Z,9.96
2022-10-10T19:44:05.469Z,9.92
2022-10-10T19:46:37.147Z,9.92
2022-10-10T19:49:05.285Z,9.86
2022-10-10T19:51:32.909Z,9.85
2022-10-10T19:54:00.696Z,9.83
2022-10-10T19:56:28.209Z,9.82
2022-10-10T19:58:57.798Z,9.86
2022-10-10T20:01:29.546Z,9.83
2022-10-10T20:03:59.265Z,9.76
2022-10-10T20:06:27.750Z,9.76
2022-10-10T20:08:55.648Z,9.80
2022-10-10T20:11:23.724Z,9.78
2022-10-10T20:13:54.252Z,9.77
2022-10-10T20:16:23.419Z,9.74
2022-10-10T20:18:50.757Z,9.70
2022-10-10T20:21:24.535Z,9.66
2022-10-10T20:23:52.130Z,9.61
2022-10-10T20:26:21.859Z,9.62
2022-10-10T20:28:50.787Z,9.60
2022-10-10T20:31:23.857Z,9.65
2022-10-10T20:33:52.809Z,9.62
2022-10-10T20:36:22.132Z,9.55
2022-10-10T20:39:06.636Z,9.56
2022-10-10T20:41:36.206Z,9.57
2022-10-10T20:44:05.937Z,9.60
2022-10-10T20:46:36.477Z,9.55
2022-10-10T20:49:06.670Z,9.53
2022-10-10T20:51:33.977Z,9.49
2022-10-10T20:54:03.878Z,9.50
2022-10-10T20:56:33.133Z,9.44
2022-10-10T20:59:01.113Z,9.44
2022-10-10T21:01:30.634Z,9.46
2022-10-10T21:03:58.933Z,9.42
2022-10-10T21:06:29.360Z,9.41
2022-10-10T21:08:56.979Z,9.41
2022-10-10T21:11:24.731Z,9.42
2022-10-10T21:13:56.585Z,9.48
2022-10-10T21:16:27.368Z,9.46
2022-10-10T21:18:57.836Z,9.46
2022-10-10T21:21:32.319Z,9.35
2022-10-10T21:24:01.268Z,9.35
2022-10-10T21:26:30.106Z,9.35
2022-10-10T21:28:59.771Z,9.32
2022-10-10T21:31:36.477Z,9.34
2022-10-10T21:34:07.211Z,9.39
2022-10-10T21:36:36.765Z,9.39
2022-10-10T21:39:07.019Z,9.39
2022-10-10T21:41:35.981Z,9.46
2022-10-10T21:44:04.264Z,9.44
2022-10-10T21:46:36.601Z,9.42
2022-10-10T21:49:07.368Z,9.50
2022-10-10T21:51:37.650Z,9.55
2022-10-10T21:54:07.082Z,9.60
2022-10-10T21:56:35.759Z,9.61
2022-10-10T21:59:05.154Z,9.69
2022-10-10T22:01:33.477Z,9.73
2022-10-10T22:04:03.516Z,9.73
2022-10-10T22:06:32.398Z,9.79
2022-10-10T22:09:02.024Z,9.79
2022-10-10T22:11:32.606Z,9.85
2022-10-10T22:14:02.695Z,9.87
2022-10-10T22:16:32.310Z,9.89
2022-10-10T22:19:00.868Z,9.92
2022-10-10T22:21:32.380Z,9.96
2022-10-10T22:24:02.419Z,9.95
2022-10-10T22:26:31.769Z,9.89
2022-10-10T22:29:00.136Z,9.90
2022-10-10T22:31:29.701Z,9.94
2022-10-10T22:33:58.285Z,9.96
2022-10-10T22:36:26.583Z,10.00
2022-10-10T22:38:55.232Z,10.03
2022-10-10T22:41:23.641Z,9.98
2022-10-10T22:43:52.209Z,10.04
2022-10-10T22:46:20.831Z,10.00
2022-10-10T22:48:48.752Z,10.02
2022-10-10T22:51:18.380Z,9.95
2022-10-10T22:53:48.147Z,9.90
2022-10-10T22:56:19.731Z,9.92
2022-10-10T22:58:49.649Z,9.92
2022-10-10T23:01:20.390Z,9.90
2022-10-10T23:03:48.273Z,9.86
2022-10-10T23:06:16.613Z,9.82
2022-10-10T23:08:44.466Z,9.77
2022-10-10T23:11:13.134Z,9.72
2022-10-10T23:13:41.395Z,9.70
2022-10-10T23:16:09.484Z,9.63
2022-10-10T23:18:38.060Z,9.63
2022-10-10T23:21:06.810Z,9.58
2022-10-10T23:23:35.030Z,9.59
2022-10-10T23:26:07.736Z,9.55
2022-10-10T23:28:37.439Z,9.51
2022-10-10T23:31:07.203Z,9.44
2022-10-10T23:33:37.147Z,9.39
2022-10-10T23:36:09.016Z,9.39
2022-10-10T23:38:38.147Z,9.35
2022-10-10T23:41:06.765Z,9.28
2022-10-10T23:43:35.050Z,9.22
2022-10-10T23:46:03.174Z,9.24
2022-10-10T23:48:31.617Z,9.22
2022-10-10T23:50:59.456Z,9.14
2022-10-10T23:53:27.253Z,9.14
2022-10-10T23:55:55.634Z,9.08
2022-10-10T23:58:23.526Z,9.03
